sensor_id;sensor_type;location;lat;lon;timestamp;P1;durP1;ratioP1;P2;durP2;ratioP2
57627;SDS011;43451;49.060;10.616;2022-08-05T00:01:14;4.60;;;3.20;;
57627;SDS011;43451;49.060;10.616;2022-08-05T00:03:40;6.13;;;3.17;;
57627;SDS011;43451;49.060;10.616;2022-08-05T00:06:06;5.97;;;3.22;;
57627;SDS011;43451;49.060;10.616;2022-08-05T00:08:32;3.95;;;3.28;;
57627;SDS011;43451;49.060;10.616;2022-08-05T00:10:58;6.63;;;3.03;;
57627;SDS011;43451;49.060;10.616;2022-08-05T00:13:24;4.35;;;3.20;;
57627;SDS011;43451;49.060;10.616;2022-08-05T00:15:49;5.18;;;3.22;;
57627;SDS011;43451;49.060;10.616;2022-08-05T00:18:15;6.10;;;3.33;;
57627;SDS011;43451;49.060;10.616;2022-08-05T00:20:40;5.65;;;3.13;;
57627;SDS011;43451;49.060;10.616;2022-08-05T00:23:05;3.70;;;3.35;;
57627;SDS011;43451;49.060;10.616;2022-08-05T00:25:31;4.32;;;3.20;;
57627;SDS011;43451;49.060;10.616;2022-08-05T00:27:57;4.68;;;3.03;;
57627;SDS011;43451;49.060;10.616;2022-08-05T00:30:22;8.02;;;3.30;;
57627;SDS011;43451;49.060;10.616;2022-08-05T00:32:47;6.43;;;3.10;;
57627;SDS011;43451;49.060;10.616;2022-08-05T00:35:13;5.28;;;2.97;;
57627;SDS011;43451;49.060;10.616;2022-08-05T00:37:39;3.88;;;3.20;;
57627;SDS011;43451;49.060;10.616;2022-08-05T00:40:05;7.60;;;3.08;;
57627;SDS011;43451;49.060;10.616;2022-08-05T00:42:31;3.65;;;3.13;;
57627;SDS011;43451;49.060;10.616;2022-08-05T00:44:58;3.38;;;3.05;;
57627;SDS011;43451;49.060;10.616;2022-08-05T00:47:23;5.53;;;3.22;;
57627;SDS011;43451;49.060;10.616;2022-08-05T00:49:49;4.63;;;3.50;;
57627;SDS011;43451;49.060;10.616;2022-08-05T00:52:14;4.13;;;3.20;;
57627;SDS011;43451;49.060;10.616;2022-08-05T00:54:40;4.03;;;3.10;;
57627;SDS011;43451;49.060;10.616;2022-08-05T00:57:05;3.88;;;3.20;;
57627;SDS011;43451;49.060;10.616;2022-08-05T00:59:30;5.40;;;3.28;;
57627;SDS011;43451;49.060;10.616;2022-08-05T01:01:56;3.40;;;3.10;;
57627;SDS011;43451;49.060;10.616;2022-08-05T01:04:21;4.38;;;3.33;;
57627;SDS011;43451;49.060;10.616;2022-08-05T01:06:46;6.35;;;3.40;;
57627;SDS011;43451;49.060;10.616;2022-08-05T01:09:12;4.75;;;3.22;;
57627;SDS011;43451;49.060;10.616;2022-08-05T01:11:38;3.78;;;3.10;;
57627;SDS011;43451;49.060;10.616;2022-08-05T01:14:08;4.43;;;3.00;;
57627;SDS011;43451;49.060;10.616;2022-08-05T01:16:50;12.88;;;3.35;;
57627;SDS011;43451;49.060;10.616;2022-08-05T01:19:29;3.72;;;3.10;;
57627;SDS011;43451;49.060;10.616;2022-08-05T01:29:49;3.65;;;2.97;;
57627;SDS011;43451;49.060;10.616;2022-08-05T01:32:19;5.72;;;3.20;;
57627;SDS011;43451;49.060;10.616;2022-08-05T01:34:54;3.90;;;3.22;;
57627;SDS011;43451;49.060;10.616;2022-08-05T01:40:09;4.55;;;3.45;;
57627;SDS011;43451;49.060;10.616;2022-08-05T01:42:35;7.00;;;3.40;;
57627;SDS011;43451;49.060;10.616;2022-08-05T01:45:03;5.60;;;2.92;;
57627;SDS011;43451;49.060;10.616;2022-08-05T01:47:31;5.20;;;3.10;;
57627;SDS011;43451;49.060;10.616;2022-08-05T01:49:59;4.15;;;3.17;;
57627;SDS011;43451;49.060;10.616;2022-08-05T01:52:27;5.40;;;3.35;;
57627;SDS011;43451;49.060;10.616;2022-08-05T01:54:56;4.40;;;2.85;;
57627;SDS011;43451;49.060;10.616;2022-08-05T01:57:24;4.75;;;3.42;;
57627;SDS011;43451;49.060;10.616;2022-08-05T01:59:54;4.15;;;3.53;;
57627;SDS011;43451;49.060;10.616;2022-08-05T02:02:23;4.07;;;3.13;;
57627;SDS011;43451;49.060;10.616;2022-08-05T02:04:51;3.60;;;3.30;;
57627;SDS011;43451;49.060;10.616;2022-08-05T02:07:18;4.15;;;3.70;;
57627;SDS011;43451;49.060;10.616;2022-08-05T02:09:44;9.30;;;3.30;;
57627;SDS011;43451;49.060;10.616;2022-08-05T02:12:17;5.78;;;3.30;;
57627;SDS011;43451;49.060;10.616;2022-08-05T02:14:47;5.90;;;3.38;;
57627;SDS011;43451;49.060;10.616;2022-08-05T02:17:23;7.40;;;3.67;;
57627;SDS011;43451;49.060;10.616;2022-08-05T02:19:54;8.60;;;3.50;;
57627;SDS011;43451;49.060;10.616;2022-08-05T02:24:59;7.30;;;3.50;;
57627;SDS011;43451;49.060;10.616;2022-08-05T02:27:29;5.85;;;3.40;;
57627;SDS011;43451;49.060;10.616;2022-08-05T02:29:58;4.63;;;3.42;;
57627;SDS011;43451;49.060;10.616;2022-08-05T02:32:26;5.65;;;3.65;;
57627;SDS011;43451;49.060;10.616;2022-08-05T02:34:54;5.60;;;4.05;;
57627;SDS011;43451;49.060;10.616;2022-08-05T02:37:22;5.95;;;3.75;;
57627;SDS011;43451;49.060;10.616;2022-08-05T02:39:48;7.07;;;3.53;;
57627;SDS011;43451;49.060;10.616;2022-08-05T02:42:15;7.67;;;3.50;;
57627;SDS011;43451;49.060;10.616;2022-08-05T02:44:42;9.25;;;3.70;;
57627;SDS011;43451;49.060;10.616;2022-08-05T02:47:09;7.67;;;3.30;;
57627;SDS011;43451;49.060;10.616;2022-08-05T02:49:39;4.63;;;3.50;;
57627;SDS011;43451;49.060;10.616;2022-08-05T02:52:10;6.10;;;3.45;;
57627;SDS011;43451;49.060;10.616;2022-08-05T02:54:38;5.00;;;3.58;;
57627;SDS011;43451;49.060;10.616;2022-08-05T02:57:15;5.32;;;3.35;;
57627;SDS011;43451;49.060;10.616;2022-08-05T02:59:43;6.55;;;3.50;;
57627;SDS011;43451;49.060;10.616;2022-08-05T03:02:11;4.72;;;3.70;;
57627;SDS011;43451;49.060;10.616;2022-08-05T03:04:38;8.57;;;3.97;;
57627;SDS011;43451;49.060;10.616;2022-08-05T03:07:05;5.90;;;4.10;;
57627;SDS011;43451;49.060;10.616;2022-08-05T03:09:31;4.05;;;3.72;;
57627;SDS011;43451;49.060;10.616;2022-08-05T03:11:57;5.57;;;3.63;;
57627;SDS011;43451;49.060;10.616;2022-08-05T03:14:22;5.85;;;3.90;;
57627;SDS011;43451;49.060;10.616;2022-08-05T03:16:48;8.27;;;4.10;;
57627;SDS011;43451;49.060;10.616;2022-08-05T03:19:13;8.52;;;4.00;;
57627;SDS011;43451;49.060;10.616;2022-08-05T03:21:38;6.10;;;4.20;;
57627;SDS011;43451;49.060;10.616;2022-08-05T03:24:04;7.53;;;3.75;;
57627;SDS011;43451;49.060;10.616;2022-08-05T03:26:30;9.38;;;4.43;;
57627;SDS011;43451;49.060;10.616;2022-08-05T03:28:56;5.50;;;3.58;;
57627;SDS011;43451;49.060;10.616;2022-08-05T03:31:22;5.88;;;4.05;;
57627;SDS011;43451;49.060;10.616;2022-08-05T03:33:48;5.00;;;3.73;;
57627;SDS011;43451;49.060;10.616;2022-08-05T03:36:14;4.40;;;3.67;;
57627;SDS011;43451;49.060;10.616;2022-08-05T03:38:39;8.02;;;3.70;;
57627;SDS011;43451;49.060;10.616;2022-08-05T03:41:06;4.05;;;3.60;;
57627;SDS011;43451;49.060;10.616;2022-08-05T03:43:31;5.18;;;3.90;;
57627;SDS011;43451;49.060;10.616;2022-08-05T03:45:57;5.05;;;3.50;;
57627;SDS011;43451;49.060;10.616;2022-08-05T03:48:22;7.00;;;3.83;;
57627;SDS011;43451;49.060;10.616;2022-08-05T03:53:28;5.70;;;4.28;;
57627;SDS011;43451;49.060;10.616;2022-08-05T03:56:05;5.47;;;3.90;;
57627;SDS011;43451;49.060;10.616;2022-08-05T03:58:34;6.65;;;3.65;;
57627;SDS011;43451;49.060;10.616;2022-08-05T04:01:02;5.45;;;3.78;;
57627;SDS011;43451;49.060;10.616;2022-08-05T04:03:30;6.25;;;3.80;;
57627;SDS011;43451;49.060;10.616;2022-08-05T04:06:00;6.80;;;3.80;;
57627;SDS011;43451;49.060;10.616;2022-08-05T04:08:27;8.00;;;4.00;;
57627;SDS011;43451;49.060;10.616;2022-08-05T04:10:54;6.05;;;3.90;;
57627;SDS011;43451;49.060;10.616;2022-08-05T04:13:21;8.55;;;4.07;;
57627;SDS011;43451;49.060;10.616;2022-08-05T04:15:48;8.00;;;4.20;;
57627;SDS011;43451;49.060;10.616;2022-08-05T04:18:13;5.38;;;3.78;;
57627;SDS011;43451;49.060;10.616;2022-08-05T04:20:39;6.32;;;3.80;;
57627;SDS011;43451;49.060;10.616;2022-08-05T04:23:05;4.43;;;3.70;;
57627;SDS011;43451;49.060;10.616;2022-08-05T04:25:31;8.85;;;4.18;;
57627;SDS011;43451;49.060;10.616;2022-08-05T04:27:56;7.03;;;3.78;;
57627;SDS011;43451;49.060;10.616;2022-08-05T04:30:21;9.52;;;4.20;;
57627;SDS011;43451;49.060;10.616;2022-08-05T04:32:47;4.25;;;3.60;;
57627;SDS011;43451;49.060;10.616;2022-08-05T04:35:12;4.90;;;3.75;;
57627;SDS011;43451;49.060;10.616;2022-08-05T04:37:37;5.03;;;3.83;;
57627;SDS011;43451;49.060;10.616;2022-08-05T04:40:03;5.53;;;3.85;;
57627;SDS011;43451;49.060;10.616;2022-08-05T04:42:29;4.63;;;4.00;;
57627;SDS011;43451;49.060;10.616;2022-08-05T04:44:54;5.22;;;4.05;;
57627;SDS011;43451;49.060;10.616;2022-08-05T04:47:19;5.40;;;4.00;;
57627;SDS011;43451;49.060;10.616;2022-08-05T04:49:45;6.25;;;3.90;;
57627;SDS011;43451;49.060;10.616;2022-08-05T04:52:10;7.30;;;4.10;;
57627;SDS011;43451;49.060;10.616;2022-08-05T04:54:36;7.70;;;4.03;;
57627;SDS011;43451;49.060;10.616;2022-08-05T04:57:01;7.03;;;3.88;;
57627;SDS011;43451;49.060;10.616;2022-08-05T04:59:26;4.35;;;3.67;;
57627;SDS011;43451;49.060;10.616;2022-08-05T05:01:52;4.72;;;3.88;;
57627;SDS011;43451;49.060;10.616;2022-08-05T05:04:17;5.80;;;3.97;;
57627;SDS011;43451;49.060;10.616;2022-08-05T05:06:43;5.43;;;3.60;;
57627;SDS011;43451;49.060;10.616;2022-08-05T05:09:09;4.85;;;3.58;;
57627;SDS011;43451;49.060;10.616;2022-08-05T05:11:35;7.47;;;3.67;;
57627;SDS011;43451;49.060;10.616;2022-08-05T05:14:01;4.88;;;3.38;;
57627;SDS011;43451;49.060;10.616;2022-08-05T05:16:27;5.40;;;3.30;;
57627;SDS011;43451;49.060;10.616;2022-08-05T05:18:53;8.75;;;3.20;;
57627;SDS011;43451;49.060;10.616;2022-08-05T05:21:18;8.65;;;2.90;;
57627;SDS011;43451;49.060;10.616;2022-08-05T05:23:44;5.75;;;3.25;;
57627;SDS011;43451;49.060;10.616;2022-08-05T05:26:09;6.15;;;3.35;;
57627;SDS011;43451;49.060;10.616;2022-08-05T05:28:34;5.82;;;3.30;;
57627;SDS011;43451;49.060;10.616;2022-08-05T05:31:00;4.75;;;3.22;;
57627;SDS011;43451;49.060;10.616;2022-08-05T05:33:25;9.50;;;3.25;;
57627;SDS011;43451;49.060;10.616;2022-08-05T05:35:50;6.13;;;3.50;;
57627;SDS011;43451;49.060;10.616;2022-08-05T05:38:16;9.25;;;3.60;;
57627;SDS011;43451;49.060;10.616;2022-08-05T05:40:41;3.85;;;3.13;;
57627;SDS011;43451;49.060;10.616;2022-08-05T05:43:08;6.03;;;3.30;;
57627;SDS011;43451;49.060;10.616;2022-08-05T05:45:33;7.57;;;3.38;;
57627;SDS011;43451;49.060;10.616;2022-08-05T05:47:59;4.85;;;3.28;;
57627;SDS011;43451;49.060;10.616;2022-08-05T05:50:24;4.45;;;3.05;;
57627;SDS011;43451;49.060;10.616;2022-08-05T05:52:50;3.30;;;3.00;;
57627;SDS011;43451;49.060;10.616;2022-08-05T05:55:16;5.03;;;3.03;;
57627;SDS011;43451;49.060;10.616;2022-08-05T05:57:42;6.20;;;3.30;;
57627;SDS011;43451;49.060;10.616;2022-08-05T06:00:10;5.13;;;3.00;;
57627;SDS011;43451;49.060;10.616;2022-08-05T06:02:38;5.15;;;3.10;;
57627;SDS011;43451;49.060;10.616;2022-08-05T06:05:08;5.90;;;3.00;;
57627;SDS011;43451;49.060;10.616;2022-08-05T06:07:36;4.07;;;3.00;;
57627;SDS011;43451;49.060;10.616;2022-08-05T06:10:03;4.68;;;2.80;;
57627;SDS011;43451;49.060;10.616;2022-08-05T06:12:30;5.07;;;2.70;;
57627;SDS011;43451;49.060;10.616;2022-08-05T06:14:55;5.00;;;3.10;;
57627;SDS011;43451;49.060;10.616;2022-08-05T06:17:21;5.05;;;3.10;;
57627;SDS011;43451;49.060;10.616;2022-08-05T06:19:46;3.83;;;2.90;;
57627;SDS011;43451;49.060;10.616;2022-08-05T06:22:11;4.95;;;3.17;;
57627;SDS011;43451;49.060;10.616;2022-08-05T06:24:46;6.85;;;3.03;;
57627;SDS011;43451;49.060;10.616;2022-08-05T06:27:11;4.70;;;3.13;;
57627;SDS011;43451;49.060;10.616;2022-08-05T06:29:36;6.35;;;2.90;;
57627;SDS011;43451;49.060;10.616;2022-08-05T06:32:02;6.35;;;2.97;;
57627;SDS011;43451;49.060;10.616;2022-08-05T06:34:27;7.57;;;3.03;;
57627;SDS011;43451;49.060;10.616;2022-08-05T06:36:53;6.47;;;2.75;;
57627;SDS011;43451;49.060;10.616;2022-08-05T06:39:18;7.82;;;2.90;;
57627;SDS011;43451;49.060;10.616;2022-08-05T06:41:43;6.40;;;2.90;;
57627;SDS011;43451;49.060;10.616;2022-08-05T06:44:09;5.13;;;3.08;;
57627;SDS011;43451;49.060;10.616;2022-08-05T06:46:34;6.00;;;3.00;;
57627;SDS011;43451;49.060;10.616;2022-08-05T06:48:59;5.18;;;3.25;;
57627;SDS011;43451;49.060;10.616;2022-08-05T06:51:25;5.93;;;3.10;;
57627;SDS011;43451;49.060;10.616;2022-08-05T06:53:50;8.20;;;3.28;;
57627;SDS011;43451;49.060;10.616;2022-08-05T06:56:15;6.78;;;2.95;;
57627;SDS011;43451;49.060;10.616;2022-08-05T06:58:43;7.43;;;3.10;;
57627;SDS011;43451;49.060;10.616;2022-08-05T07:01:08;10.23;;;3.30;;
57627;SDS011;43451;49.060;10.616;2022-08-05T07:03:33;9.07;;;3.38;;
57627;SDS011;43451;49.060;10.616;2022-08-05T07:05:59;5.55;;;2.92;;
57627;SDS011;43451;49.060;10.616;2022-08-05T07:08:26;7.47;;;2.95;;
57627;SDS011;43451;49.060;10.616;2022-08-05T07:10:52;5.53;;;3.00;;
57627;SDS011;43451;49.060;10.616;2022-08-05T07:13:18;5.57;;;2.88;;
57627;SDS011;43451;49.060;10.616;2022-08-05T07:16:02;5.50;;;2.83;;
57627;SDS011;43451;49.060;10.616;2022-08-05T07:18:47;4.97;;;2.80;;
57627;SDS011;43451;49.060;10.616;2022-08-05T07:21:12;6.20;;;3.00;;
57627;SDS011;43451;49.060;10.616;2022-08-05T07:23:37;6.63;;;2.92;;
57627;SDS011;43451;49.060;10.616;2022-08-05T07:26:03;6.72;;;2.78;;
57627;SDS011;43451;49.060;10.616;2022-08-05T07:28:28;4.30;;;2.90;;
57627;SDS011;43451;49.060;10.616;2022-08-05T07:30:54;4.63;;;2.60;;
57627;SDS011;43451;49.060;10.616;2022-08-05T07:33:19;4.55;;;2.80;;
57627;SDS011;43451;49.060;10.616;2022-08-05T07:35:45;4.22;;;2.42;;
57627;SDS011;43451;49.060;10.616;2022-08-05T07:38:11;5.93;;;2.58;;
57627;SDS011;43451;49.060;10.616;2022-08-05T07:40:37;8.10;;;2.38;;
57627;SDS011;43451;49.060;10.616;2022-08-05T07:43:02;4.70;;;2.58;;
57627;SDS011;43451;49.060;10.616;2022-08-05T07:45:28;5.93;;;2.88;;
57627;SDS011;43451;49.060;10.616;2022-08-05T07:47:53;4.40;;;2.72;;
57627;SDS011;43451;49.060;10.616;2022-08-05T07:50:18;5.40;;;2.60;;
57627;SDS011;43451;49.060;10.616;2022-08-05T07:52:44;4.97;;;2.53;;
57627;SDS011;43451;49.060;10.616;2022-08-05T07:55:09;4.15;;;2.63;;
57627;SDS011;43451;49.060;10.616;2022-08-05T07:57:35;5.28;;;2.42;;
57627;SDS011;43451;49.060;10.616;2022-08-05T08:00:01;6.28;;;2.45;;
57627;SDS011;43451;49.060;10.616;2022-08-05T08:02:28;2.60;;;2.40;;
57627;SDS011;43451;49.060;10.616;2022-08-05T08:04:54;3.95;;;2.20;;
57627;SDS011;43451;49.060;10.616;2022-08-05T08:07:20;2.35;;;2.15;;
57627;SDS011;43451;49.060;10.616;2022-08-05T08:09:46;3.37;;;2.33;;
57627;SDS011;43451;49.060;10.616;2022-08-05T08:12:12;4.40;;;2.30;;
57627;SDS011;43451;49.060;10.616;2022-08-05T08:14:39;4.40;;;2.33;;
57627;SDS011;43451;49.060;10.616;2022-08-05T08:17:05;5.43;;;2.63;;
57627;SDS011;43451;49.060;10.616;2022-08-05T08:19:41;4.35;;;2.30;;
57627;SDS011;43451;49.060;10.616;2022-08-05T08:22:08;3.28;;;2.30;;
57627;SDS011;43451;49.060;10.616;2022-08-05T08:24:34;3.85;;;2.58;;
57627;SDS011;43451;49.060;10.616;2022-08-05T08:27:00;3.27;;;2.27;;
57627;SDS011;43451;49.060;10.616;2022-08-05T08:29:26;3.65;;;2.00;;
57627;SDS011;43451;49.060;10.616;2022-08-05T08:31:51;3.63;;;2.30;;
57627;SDS011;43451;49.060;10.616;2022-08-05T08:34:17;3.25;;;2.40;;
57627;SDS011;43451;49.060;10.616;2022-08-05T08:36:44;3.28;;;2.10;;
57627;SDS011;43451;49.060;10.616;2022-08-05T08:39:09;3.45;;;2.15;;
57627;SDS011;43451;49.060;10.616;2022-08-05T08:41:35;3.40;;;2.17;;
57627;SDS011;43451;49.060;10.616;2022-08-05T08:44:02;2.03;;;1.65;;
57627;SDS011;43451;49.060;10.616;2022-08-05T08:46:30;3.65;;;2.10;;
57627;SDS011;43451;49.060;10.616;2022-08-05T08:48:56;6.63;;;2.00;;
57627;SDS011;43451;49.060;10.616;2022-08-05T08:51:22;3.65;;;2.22;;
57627;SDS011;43451;49.060;10.616;2022-08-05T08:53:48;3.67;;;1.73;;
57627;SDS011;43451;49.060;10.616;2022-08-05T08:56:15;2.08;;;1.45;;
57627;SDS011;43451;49.060;10.616;2022-08-05T08:58:41;2.90;;;1.67;;
57627;SDS011;43451;49.060;10.616;2022-08-05T09:01:07;2.65;;;1.70;;
57627;SDS011;43451;49.060;10.616;2022-08-05T09:03:34;1.85;;;1.50;;
57627;SDS011;43451;49.060;10.616;2022-08-05T09:06:00;2.38;;;1.70;;
57627;SDS011;43451;49.060;10.616;2022-08-05T09:08:25;1.73;;;1.58;;
57627;SDS011;43451;49.060;10.616;2022-08-05T09:10:51;2.42;;;1.50;;
57627;SDS011;43451;49.060;10.616;2022-08-05T09:13:16;1.70;;;1.40;;
57627;SDS011;43451;49.060;10.616;2022-08-05T09:15:43;1.60;;;1.50;;
57627;SDS011;43451;49.060;10.616;2022-08-05T09:18:09;3.63;;;1.40;;
57627;SDS011;43451;49.060;10.616;2022-08-05T09:20:35;2.55;;;1.50;;
57627;SDS011;43451;49.060;10.616;2022-08-05T09:25:31;2.35;;;1.58;;
57627;SDS011;43451;49.060;10.616;2022-08-05T09:30:54;2.20;;;1.30;;
57627;SDS011;43451;49.060;10.616;2022-08-05T09:33:21;3.05;;;1.30;;
57627;SDS011;43451;49.060;10.616;2022-08-05T09:38:26;2.78;;;1.30;;
57627;SDS011;43451;49.060;10.616;2022-08-05T09:40:53;1.42;;;1.33;;
57627;SDS011;43451;49.060;10.616;2022-08-05T09:46:02;3.70;;;1.40;;
57627;SDS011;43451;49.060;10.616;2022-08-05T09:48:30;2.55;;;1.38;;
57627;SDS011;43451;49.060;10.616;2022-08-05T09:51:07;2.30;;;1.30;;
57627;SDS011;43451;49.060;10.616;2022-08-05T09:53:49;1.80;;;1.42;;
57627;SDS011;43451;49.060;10.616;2022-08-05T09:56:23;1.40;;;1.30;;
57627;SDS011;43451;49.060;10.616;2022-08-05T09:59:00;3.42;;;1.45;;
57627;SDS011;43451;49.060;10.616;2022-08-05T10:01:30;3.60;;;1.30;;
57627;SDS011;43451;49.060;10.616;2022-08-05T10:06:31;2.20;;;1.40;;
57627;SDS011;43451;49.060;10.616;2022-08-05T10:09:08;1.52;;;1.40;;
57627;SDS011;43451;49.060;10.616;2022-08-05T10:11:41;9.77;;;1.67;;
57627;SDS011;43451;49.060;10.616;2022-08-05T10:14:27;3.22;;;1.67;;
57627;SDS011;43451;49.060;10.616;2022-08-05T10:16:54;1.40;;;1.25;;
57627;SDS011;43451;49.060;10.616;2022-08-05T10:19:26;5.07;;;1.63;;
57627;SDS011;43451;49.060;10.616;2022-08-05T10:21:51;2.78;;;1.42;;
57627;SDS011;43451;49.060;10.616;2022-08-05T10:24:17;4.13;;;1.50;;
57627;SDS011;43451;49.060;10.616;2022-08-05T10:29:10;2.60;;;1.30;;
57627;SDS011;43451;49.060;10.616;2022-08-05T10:31:36;1.48;;;1.33;;
57627;SDS011;43451;49.060;10.616;2022-08-05T10:34:04;1.30;;;1.20;;
57627;SDS011;43451;49.060;10.616;2022-08-05T10:36:31;1.90;;;1.30;;
57627;SDS011;43451;49.060;10.616;2022-08-05T10:39:02;1.90;;;1.33;;
57627;SDS011;43451;49.060;10.616;2022-08-05T10:41:58;2.40;;;1.33;;
57627;SDS011;43451;49.060;10.616;2022-08-05T10:44:27;3.22;;;1.40;;
57627;SDS011;43451;49.060;10.616;2022-08-05T10:46:56;1.65;;;1.40;;
57627;SDS011;43451;49.060;10.616;2022-08-05T10:49:22;1.92;;;1.25;;
57627;SDS011;43451;49.060;10.616;2022-08-05T10:51:51;2.67;;;1.35;;
57627;SDS011;43451;49.060;10.616;2022-08-05T10:54:22;2.28;;;1.60;;
57627;SDS011;43451;49.060;10.616;2022-08-05T10:56:52;1.98;;;1.30;;
57627;SDS011;43451;49.060;10.616;2022-08-05T10:59:25;4.25;;;1.50;;
57627;SDS011;43451;49.060;10.616;2022-08-05T11:02:09;1.73;;;1.30;;
57627;SDS011;43451;49.060;10.616;2022-08-05T11:04:43;5.82;;;1.70;;
57627;SDS011;43451;49.060;10.616;2022-08-05T11:07:10;1.85;;;1.50;;
57627;SDS011;43451;49.060;10.616;2022-08-05T11:09:46;1.67;;;1.38;;
57627;SDS011;43451;49.060;10.616;2022-08-05T11:15:08;2.80;;;1.70;;
57627;SDS011;43451;49.060;10.616;2022-08-05T11:17:40;2.45;;;1.40;;
57627;SDS011;43451;49.060;10.616;2022-08-05T11:20:07;2.67;;;1.40;;
57627;SDS011;43451;49.060;10.616;2022-08-05T11:23:23;2.70;;;1.40;;
57627;SDS011;43451;49.060;10.616;2022-08-05T11:28:52;1.90;;;1.67;;
57627;SDS011;43451;49.060;10.616;2022-08-05T11:31:19;2.28;;;1.60;;
57627;SDS011;43451;49.060;10.616;2022-08-05T11:36:13;3.88;;;1.40;;
57627;SDS011;43451;49.060;10.616;2022-08-05T11:43:32;1.70;;;1.60;;
57627;SDS011;43451;49.060;10.616;2022-08-05T11:45:58;1.70;;;1.60;;
57627;SDS011;43451;49.060;10.616;2022-08-05T11:48:25;2.25;;;1.50;;
57627;SDS011;43451;49.060;10.616;2022-08-05T11:50:51;3.47;;;1.60;;
57627;SDS011;43451;49.060;10.616;2022-08-05T11:53:18;2.67;;;1.40;;
57627;SDS011;43451;49.060;10.616;2022-08-05T11:55:51;1.60;;;1.50;;
57627;SDS011;43451;49.060;10.616;2022-08-05T11:58:26;2.92;;;1.50;;
57627;SDS011;43451;49.060;10.616;2022-08-05T12:03:27;2.05;;;1.35;;
57627;SDS011;43451;49.060;10.616;2022-08-05T12:05:56;2.30;;;1.30;;
57627;SDS011;43451;49.060;10.616;2022-08-05T12:08:22;1.55;;;1.40;;
57627;SDS011;43451;49.060;10.616;2022-08-05T12:10:48;5.80;;;1.47;;
57627;SDS011;43451;49.060;10.616;2022-08-05T12:13:14;17.42;;;2.13;;
57627;SDS011;43451;49.060;10.616;2022-08-05T12:18:09;1.17;;;1.10;;
57627;SDS011;43451;49.060;10.616;2022-08-05T12:20:34;4.33;;;1.60;;
57627;SDS011;43451;49.060;10.616;2022-08-05T12:23:09;2.92;;;1.33;;
57627;SDS011;43451;49.060;10.616;2022-08-05T12:25:48;1.77;;;1.45;;
57627;SDS011;43451;49.060;10.616;2022-08-05T12:28:28;2.97;;;1.40;;
57627;SDS011;43451;49.060;10.616;2022-08-05T12:30:57;1.50;;;1.40;;
57627;SDS011;43451;49.060;10.616;2022-08-05T12:33:23;3.00;;;1.43;;
57627;SDS011;43451;49.060;10.616;2022-08-05T12:35:50;2.60;;;1.70;;
57627;SDS011;43451;49.060;10.616;2022-08-05T12:38:15;2.03;;;1.50;;
57627;SDS011;43451;49.060;10.616;2022-08-05T12:40:41;2.25;;;1.50;;
57627;SDS011;43451;49.060;10.616;2022-08-05T12:43:06;2.33;;;1.40;;
57627;SDS011;43451;49.060;10.616;2022-08-05T12:45:32;3.30;;;1.40;;
57627;SDS011;43451;49.060;10.616;2022-08-05T12:47:57;5.80;;;1.53;;
57627;SDS011;43451;49.060;10.616;2022-08-05T12:50:23;4.23;;;1.87;;
57627;SDS011;43451;49.060;10.616;2022-08-05T12:52:55;2.00;;;1.58;;
57627;SDS011;43451;49.060;10.616;2022-08-05T12:55:24;2.90;;;1.60;;
57627;SDS011;43451;49.060;10.616;2022-08-05T12:57:51;4.65;;;1.60;;
57627;SDS011;43451;49.060;10.616;2022-08-05T13:00:21;2.85;;;1.50;;
57627;SDS011;43451;49.060;10.616;2022-08-05T13:02:48;1.95;;;1.75;;
57627;SDS011;43451;49.060;10.616;2022-08-05T13:05:14;1.73;;;1.60;;
57627;SDS011;43451;49.060;10.616;2022-08-05T13:07:41;2.87;;;1.40;;
57627;SDS011;43451;49.060;10.616;2022-08-05T13:10:11;2.20;;;1.50;;
57627;SDS011;43451;49.060;10.616;2022-08-05T13:12:41;5.57;;;1.50;;
57627;SDS011;43451;49.060;10.616;2022-08-05T13:15:11;1.55;;;1.45;;
57627;SDS011;43451;49.060;10.616;2022-08-05T13:17:38;6.28;;;1.90;;
57627;SDS011;43451;49.060;10.616;2022-08-05T13:20:11;4.13;;;1.60;;
57627;SDS011;43451;49.060;10.616;2022-08-05T13:22:45;2.63;;;1.67;;
57627;SDS011;43451;49.060;10.616;2022-08-05T13:25:14;4.60;;;1.60;;
57627;SDS011;43451;49.060;10.616;2022-08-05T13:27:41;2.85;;;1.60;;
57627;SDS011;43451;49.060;10.616;2022-08-05T13:30:14;5.00;;;1.60;;
57627;SDS011;43451;49.060;10.616;2022-08-05T13:32:41;1.95;;;1.50;;
57627;SDS011;43451;49.060;10.616;2022-08-05T13:35:11;2.00;;;1.50;;
57627;SDS011;43451;49.060;10.616;2022-08-05T13:37:38;2.22;;;1.40;;
57627;SDS011;43451;49.060;10.616;2022-08-05T13:40:03;6.80;;;1.63;;
57627;SDS011;43451;49.060;10.616;2022-08-05T13:42:29;4.53;;;1.70;;
57627;SDS011;43451;49.060;10.616;2022-08-05T13:44:55;4.40;;;1.67;;
57627;SDS011;43451;49.060;10.616;2022-08-05T13:47:21;3.03;;;1.75;;
57627;SDS011;43451;49.060;10.616;2022-08-05T13:49:48;4.13;;;1.88;;
57627;SDS011;43451;49.060;10.616;2022-08-05T13:52:14;3.00;;;1.63;;
57627;SDS011;43451;49.060;10.616;2022-08-05T13:54:41;19.20;;;2.90;;
57627;SDS011;43451;49.060;10.616;2022-08-05T13:57:07;2.10;;;1.70;;
57627;SDS011;43451;49.060;10.616;2022-08-05T13:59:34;2.97;;;1.65;;
57627;SDS011;43451;49.060;10.616;2022-08-05T14:01:59;2.40;;;1.70;;
57627;SDS011;43451;49.060;10.616;2022-08-05T14:04:26;4.75;;;1.73;;
57627;SDS011;43451;49.060;10.616;2022-08-05T14:07:11;3.20;;;1.70;;
57627;SDS011;43451;49.060;10.616;2022-08-05T14:09:36;4.33;;;1.90;;
57627;SDS011;43451;49.060;10.616;2022-08-05T14:12:03;1.90;;;1.67;;
57627;SDS011;43451;49.060;10.616;2022-08-05T14:14:28;3.47;;;1.90;;
57627;SDS011;43451;49.060;10.616;2022-08-05T14:16:54;3.00;;;1.50;;
57627;SDS011;43451;49.060;10.616;2022-08-05T14:19:19;3.77;;;1.70;;
57627;SDS011;43451;49.060;10.616;2022-08-05T14:21:45;2.20;;;1.60;;
57627;SDS011;43451;49.060;10.616;2022-08-05T14:24:10;3.10;;;1.90;;
57627;SDS011;43451;49.060;10.616;2022-08-05T14:26:36;1.70;;;1.60;;
57627;SDS011;43451;49.060;10.616;2022-08-05T14:29:02;2.33;;;1.70;;
57627;SDS011;43451;49.060;10.616;2022-08-05T14:31:28;4.27;;;1.93;;
57627;SDS011;43451;49.060;10.616;2022-08-05T14:33:54;3.07;;;1.87;;
57627;SDS011;43451;49.060;10.616;2022-08-05T14:36:19;2.10;;;1.90;;
57627;SDS011;43451;49.060;10.616;2022-08-05T14:38:45;2.40;;;1.70;;
57627;SDS011;43451;49.060;10.616;2022-08-05T14:41:10;2.60;;;1.87;;
57627;SDS011;43451;49.060;10.616;2022-08-05T14:43:36;2.00;;;1.60;;
57627;SDS011;43451;49.060;10.616;2022-08-05T14:46:01;2.47;;;1.70;;
57627;SDS011;43451;49.060;10.616;2022-08-05T14:48:27;3.93;;;1.90;;
57627;SDS011;43451;49.060;10.616;2022-08-05T14:50:52;1.60;;;1.50;;
57627;SDS011;43451;49.060;10.616;2022-08-05T14:53:19;1.90;;;1.70;;
57627;SDS011;43451;49.060;10.616;2022-08-05T14:55:44;3.43;;;1.83;;
57627;SDS011;43451;49.060;10.616;2022-08-05T14:58:10;4.37;;;1.83;;
57627;SDS011;43451;49.060;10.616;2022-08-05T15:00:35;20.70;;;2.47;;
57627;SDS011;43451;49.060;10.616;2022-08-05T15:03:01;1.93;;;1.73;;
57627;SDS011;43451;49.060;10.616;2022-08-05T15:05:26;1.87;;;1.70;;
57627;SDS011;43451;49.060;10.616;2022-08-05T15:07:52;3.07;;;1.83;;
57627;SDS011;43451;49.060;10.616;2022-08-05T15:10:17;3.03;;;1.83;;
57627;SDS011;43451;49.060;10.616;2022-08-05T15:12:43;2.03;;;1.70;;
57627;SDS011;43451;49.060;10.616;2022-08-05T15:15:08;3.57;;;1.60;;
57627;SDS011;43451;49.060;10.616;2022-08-05T15:17:34;2.73;;;1.83;;
57627;SDS011;43451;49.060;10.616;2022-08-05T15:20:00;4.50;;;1.97;;
57627;SDS011;43451;49.060;10.616;2022-08-05T15:22:26;3.50;;;1.90;;
57627;SDS011;43451;49.060;10.616;2022-08-05T15:24:52;2.37;;;1.77;;